Nearby METAR Reports

 

KHIF - Hill Afb/Ogden, Utah, USA
Distance from station: ENE 6mi, 9km
Updated: Mon, 28-Sep-2020 7:58am MDT
Clear
Clear
 Wind from E
Wind: E 12 mph , 19 km/h
Temperature: 45°F , 7°C
Wind Chill: 39°F , 4°C
Dew Point: 23°F , -5°C
Humidity: 42%
Barometer: 30.44 inHg , 1030.8 hPa
Clouds: Clear
Visibility: 10 miles , 16 km
2020/09/28 13:58 KHIF 281358Z AUTO 10010KT 10SM CLR 07/M05 A3044 RMK AO2 SLP286 T00691048
KOGD - Ogden, Utah, USA
Distance from station: NNE 9mi, 14km
Updated: Mon, 28-Sep-2020 7:53am MDT
Clear
Clear
 Wind from SSW
Wind: SSW 5 mph , 7 km/h
Temperature: 45°F , 7°C
Wind Chill: 42°F , 6°C
Dew Point: 27°F , -3°C
Humidity: 49%
Barometer: 30.43 inHg , 1030.5 hPa
Clouds: Clear
Visibility: 10 miles , 16 km
2020/09/28 13:53 KOGD 281353Z 21004KT 10SM CLR 07/M03 A3043 RMK AO2 SLP282 T00671028 $
 
KSLC - Salt Lake City, Utah, USA
Distance from station: SSE 21mi, 34km
Updated: Mon, 28-Sep-2020 7:54am MDT
Mostly cloudy
Mostly cloudy
 Wind from W
Wind: W 5 mph , 7 km/h
Temperature: 46°F , 8°C
Wind Chill: 44°F , 7°C
Dew Point: 34°F , 1°C
Humidity: 62%
Barometer: 30.42 inHg , 1030.1 hPa
Clouds: Mostly cloudy
Visibility: 10 miles , 16 km
Cloud details: Few Clouds 500 ft
Mostly cloudy 22000 ft
2020/09/28 13:54 KSLC 281354Z 28004KT 10SM FEW005 BKN220 08/01 A3042 RMK AO2 SLP283 FU FEW005 FU E T00830011 $
KLGU - Logan, Utah, USA
Distance from station: NNE 50mi, 80km
Updated: Mon, 28-Sep-2020 7:51am MDT
Clear
Clear
 Wind from calm
Wind: Calm
Temperature: 36°F , 2°C
Dew Point: 27°F , -3°C
Humidity: 70%
Barometer: 30.47 inHg , 1031.8 hPa
Clouds: Clear
Visibility: 10 miles , 16 km
2020/09/28 13:51 KLGU 281351Z AUTO 00000KT 10SM CLR 02/M03 A3047 RMK AO2 SLP314 T00171028
 
K36U - Heber/Russ Mcdon, Utah, USA
Distance from station: SE 53mi, 85km
Updated: Wed, 11-Oct-2017 6:50pm MDT
NOT Current
Clear
Clear
 Wind from SSW
Wind: SSW 10 mph , 17 km/h, Gust: 18 mph , 30 km/h
Temperature: 63°F , 17°C
Dew Point: 16°F , -9°C
Humidity: 16%
Barometer: 29.87 inHg , 1011.5 hPa
Clouds: Clear
Visibility: 10 miles , 16 km
2017/10/12 00:50 K36U 120050Z AUTO 21009G16KT 10SM CLR 17/M09 A2987 RMK AO2
KEVW - Evanston, Wyoming, USA
Distance from station: ENE 55mi, 89km
Updated: Mon, 28-Sep-2020 7:53am MDT
Clear
Clear
 Wind from ENE
Wind: ENE 6 mph , 9 km/h
Temperature: 36°F , 2°C
Wind Chill: 31°F , -1°C
Dew Point: 18°F , -8°C
Humidity: 48%
Barometer: 30.50 inHg , 1032.8 hPa
Clouds: Clear
Visibility: 10 miles , 16 km
2020/09/28 13:53 KEVW 281353Z AUTO 07005KT 10SM CLR 02/M08 A3050 RMK AO2 SLP304 T00171078
 
KPVU - Provo Muni, Utah, USA
Distance from station: SSE 62mi, 100km
Updated: Mon, 28-Sep-2020 7:56am MDT
Few Clouds
Few Clouds
 Wind from ESE
Wind: ESE 7 mph , 11 km/h
Temperature: 43°F , 6°C
Wind Chill: 39°F , 4°C
Dew Point: 28°F , -2°C
Humidity: 57%
Barometer: 30.44 inHg , 1030.8 hPa
Clouds: Few Clouds
Visibility: 10 miles , 16 km
Cloud details: Few Clouds 20000 ft
2020/09/28 13:56 KPVU 281356Z 11006KT 10SM FEW200 06/M02 A3044 RMK AO2 SLP292 T00561022
KDPG - Dugway Prvg Grou, Utah, USA
Distance from station: SW 75mi, 121km
Updated: Mon, 28-Sep-2020 7:55am MDT
Partly cloudy
Partly cloudy
 Wind from varies
Wind: varies 1 mph , 2 km/h
Temperature: 34°F , 1°C
Dew Point: 23°F , -5°C
Humidity: 65%
Barometer: 30.46 inHg , 1031.5 hPa
Clouds: Partly cloudy
Visibility: 50 miles , 80 km
Cloud details: Partly cloudy 35000 ft
2020/09/28 13:55 KDPG 281355Z VRB01KT 50SM SCT350 01/M05 A3046 RMK SLP299 T00141053 FIRST
 
KENV - Wendover (aut), Utah, USA
Distance from station: WSW 105mi, 169km
Updated: Mon, 28-Sep-2020 7:56am MDT
Clear
Clear
 Wind from SW
Wind: SW 3 mph , 6 km/h
Temperature: 46°F , 8°C
Dew Point: 28°F , -2°C
Humidity: 50%
Barometer: 30.45 inHg , 1031.2 hPa
Clouds: Clear
Visibility: 10 miles , 16 km
2020/09/28 13:56 KENV 281356Z AUTO 23003KT 10SM CLR 08/M02 A3045 RMK AO2 SLP307 T00831017
KPUC - Price, Utah, USA
Distance from station: SE 123mi, 197km
Updated: Mon, 28-Sep-2020 7:53am MDT
Clear
Clear
 Wind from N
Wind: N 15 mph , 24 km/h
Temperature: 46°F , 8°C
Wind Chill: 40°F , 4°C
Dew Point: 19°F , -7°C
Humidity: 34%
Barometer: 30.43 inHg , 1030.5 hPa
Clouds: Clear
Visibility: 10 miles , 16 km
2020/09/28 13:53 KPUC 281353Z AUTO 01013KT 10SM CLR 08/M07 A3043 RMK AO2 SLP281 T00831072
 
KPIH - Pocatello, Idaho, USA
Distance from station: NNW 130mi, 208km
Updated: Mon, 28-Sep-2020 7:53am MDT
Clear
Clear
 Wind from calm
Wind: Calm
Temperature: 28°F , -2°C
Dew Point: 27°F , -3°C
Humidity: 93%
Barometer: 30.49 inHg , 1032.5 hPa
Clouds: Clear
Visibility: 10 miles , 16 km
2020/09/28 13:53 KPIH 281353Z 00000KT 10SM CLR M02/M03 A3049 RMK AO2 SLP331 T10171033
KBYI - Burley, Idaho, USA
Distance from station: NW 134mi, 216km
Updated: Mon, 28-Sep-2020 7:53am MDT
Clear
Clear
 Wind from calm
Wind: Calm
Temperature: 37°F , 3°C
Dew Point: 30°F , -1°C
Humidity: 75%
Barometer: 30.47 inHg , 1031.8 hPa
Clouds: Clear
Visibility: 10 miles , 16 km
2020/09/28 13:53 KBYI 281353Z AUTO 00000KT 10SM CLR 03/M01 A3047 RMK AO2 SLP316 T00281006 $
 
KVEL - Vernal, Utah, USA
Distance from station: ESE 140mi, 226km
Updated: Mon, 28-Sep-2020 7:53am MDT
Clear
Clear
 Wind from W
Wind: W 3 mph , 6 km/h
Temperature: 43°F , 6°C
Dew Point: 23°F , -5°C
Humidity: 46%
Barometer: 30.48 inHg , 1032.2 hPa
Clouds: Clear
Visibility: 10 miles , 16 km
2020/09/28 13:53 KVEL 281353Z AUTO 26003KT 10SM CLR 06/M05 A3048 RMK AO2 SLP299 T00561050
KBPI - Big Piney, Wyoming, USA
Distance from station: NE 145mi, 234km
Updated: Mon, 28-Sep-2020 7:53am MDT
Clear
Clear
 Wind from calm
Wind: Calm
Temperature: 23°F , -5°C
Dew Point: 16°F , -9°C
Humidity: 74%
Barometer: 30.52 inHg , 1033.5 hPa
Clouds: Clear
Visibility: 10 miles , 16 km
2020/09/28 13:53 KBPI 281353Z AUTO 00000KT 10SM CLR M05/M09 A3052 RMK AO2 SLP336 T10501089